AEE37J LGAV-LGMK
Flight info
| Callsign | AEE37J |
|---|---|
| Flight time | 0h 23m |
| Altitude | 15000 |
| Route | KEA L995 VARIX |
| Aircraft | A320/M-SDE3FGHIRWY/LB1 |
Departure
| Time | 2026-04-24 10:39 |
|---|---|
| Airport | Athens Eleftherios Venizelos International Airport (LGAV) |
Arrival
| Time | 2026-04-24 11:02 |
|---|---|
| Airport | Mykonos Island National Airport (LGMK) |
| Time | Latitude | Longitude | Altitude | Speed | Heading |
|---|---|---|---|---|---|
| 2026-04-24 09:36 | 37.94092 | 23.95423 | 288 ft | 0 kts | 217° |
| 2026-04-24 10:30 | 37.94101 | 23.95432 | 288 ft | 2 kts | 217° |
| 2026-04-24 10:30 | 37.94112 | 23.95442 | 288 ft | 0 kts | 217° |
| 2026-04-24 10:31 | 37.94120 | 23.95450 | 288 ft | 2 kts | 206° |
| 2026-04-24 10:31 | 37.94134 | 23.95456 | 288 ft | 2 kts | 188° |
| 2026-04-24 10:31 | 37.94150 | 23.95456 | 288 ft | 2 kts | 170° |
| 2026-04-24 10:31 | 37.94164 | 23.95451 | 288 ft | 2 kts | 153° |
| 2026-04-24 10:32 | 37.94176 | 23.95440 | 288 ft | 2 kts | 136° |
| 2026-04-24 10:32 | 37.94182 | 23.95433 | 288 ft | 1 kts | 126° |
| 2026-04-24 10:32 | 37.94185 | 23.95428 | 288 ft | 0 kts | 126° |
| 2026-04-24 10:35 | 37.94183 | 23.95432 | 288 ft | 2 kts | 126° |
| 2026-04-24 10:35 | 37.94155 | 23.95491 | 288 ft | 11 kts | 104° |
| 2026-04-24 10:35 | 37.94118 | 23.95582 | 287 ft | 12 kts | 127° |
| 2026-04-24 10:35 | 37.94050 | 23.95649 | 287 ft | 13 kts | 181° |
| 2026-04-24 10:36 | 37.93973 | 23.95587 | 287 ft | 13 kts | 216° |
| 2026-04-24 10:36 | 37.93882 | 23.95502 | 287 ft | 20 kts | 216° |
| 2026-04-24 10:36 | 37.93750 | 23.95377 | 287 ft | 26 kts | 217° |
| 2026-04-24 10:36 | 37.93610 | 23.95245 | 287 ft | 25 kts | 217° |
| 2026-04-24 10:37 | 37.93474 | 23.95116 | 287 ft | 24 kts | 217° |
| 2026-04-24 10:37 | 37.93343 | 23.94989 | 287 ft | 23 kts | 217° |
| 2026-04-24 10:37 | 37.93218 | 23.94869 | 287 ft | 16 kts | 216° |
| 2026-04-24 10:37 | 37.93134 | 23.94895 | 287 ft | 14 kts | 98° |
| 2026-04-24 10:38 | 37.93166 | 23.95009 | 287 ft | 14 kts | 65° |
| 2026-04-24 10:38 | 37.93226 | 23.95133 | 287 ft | 21 kts | 53° |
| 2026-04-24 10:38 | 37.93392 | 23.95313 | 287 ft | 54 kts | 37° |
| 2026-04-24 10:38 | 37.93866 | 23.95764 | 287 ft | 116 kts | 37° |
| 2026-04-24 10:39 | 37.94626 | 23.96486 | 383 ft | 155 kts | 39° |
| 2026-04-24 10:39 | 37.95457 | 23.97283 | 1020 ft | 149 kts | 38° |
| 2026-04-24 10:39 | 37.96274 | 23.98076 | 1586 ft | 153 kts | 38° |
| 2026-04-24 10:39 | 37.97108 | 23.98885 | 2182 ft | 153 kts | 37° |
| 2026-04-24 10:40 | 37.97949 | 23.99696 | 2670 ft | 155 kts | 37° |
| 2026-04-24 10:40 | 37.98795 | 24.00511 | 3139 ft | 157 kts | 36° |
| 2026-04-24 10:40 | 37.99663 | 24.01344 | 3599 ft | 161 kts | 36° |
| 2026-04-24 10:40 | 38.00587 | 24.02230 | 3915 ft | 177 kts | 36° |
| 2026-04-24 10:41 | 38.01499 | 24.03356 | 4222 ft | 195 kts | 60° |
| 2026-04-24 10:41 | 38.01675 | 24.05128 | 4456 ft | 223 kts | 105° |
| 2026-04-24 10:41 | 38.00886 | 24.06914 | 4883 ft | 243 kts | 127° |
| 2026-04-24 10:41 | 37.99783 | 24.08620 | 5344 ft | 260 kts | 129° |
| 2026-04-24 10:42 | 37.98580 | 24.10415 | 5842 ft | 277 kts | 129° |
| 2026-04-24 10:42 | 37.97330 | 24.12279 | 6606 ft | 282 kts | 129° |
| 2026-04-24 10:42 | 37.96080 | 24.14150 | 7434 ft | 284 kts | 130° |
| 2026-04-24 10:42 | 37.94822 | 24.16043 | 8239 ft | 288 kts | 130° |
| 2026-04-24 10:43 | 37.93550 | 24.17961 | 9037 ft | 290 kts | 130° |
| 2026-04-24 10:43 | 37.92242 | 24.19935 | 9822 ft | 293 kts | 130° |
| 2026-04-24 10:43 | 37.90957 | 24.21876 | 10560 ft | 295 kts | 130° |
| 2026-04-24 10:43 | 37.89651 | 24.23848 | 11279 ft | 298 kts | 130° |
| 2026-04-24 10:44 | 37.88338 | 24.25831 | 11971 ft | 300 kts | 130° |
| 2026-04-24 10:44 | 37.86990 | 24.27867 | 12644 ft | 302 kts | 130° |
| 2026-04-24 10:44 | 37.85650 | 24.29888 | 13275 ft | 306 kts | 130° |
| 2026-04-24 10:44 | 37.84276 | 24.31962 | 13900 ft | 309 kts | 131° |
| 2026-04-24 10:45 | 37.82900 | 24.34037 | 14507 ft | 312 kts | 131° |
| 2026-04-24 10:45 | 37.81511 | 24.36129 | 14922 ft | 315 kts | 131° |
| 2026-04-24 10:45 | 37.80106 | 24.38244 | 15038 ft | 316 kts | 131° |
| 2026-04-24 10:45 | 37.78704 | 24.40355 | 15039 ft | 315 kts | 131° |
| 2026-04-24 10:46 | 37.77301 | 24.42465 | 15040 ft | 315 kts | 131° |
| 2026-04-24 10:46 | 37.75901 | 24.44569 | 15039 ft | 315 kts | 131° |
| 2026-04-24 10:46 | 37.74488 | 24.46692 | 15034 ft | 315 kts | 131° |
| 2026-04-24 10:46 | 37.73095 | 24.48783 | 15029 ft | 315 kts | 131° |
| 2026-04-24 10:47 | 37.71691 | 24.50890 | 15025 ft | 315 kts | 131° |
| 2026-04-24 10:47 | 37.70275 | 24.53013 | 14990 ft | 316 kts | 131° |
| 2026-04-24 10:47 | 37.68866 | 24.55123 | 14741 ft | 314 kts | 131° |
| 2026-04-24 10:47 | 37.67485 | 24.57191 | 14495 ft | 312 kts | 131° |
| 2026-04-24 10:48 | 37.66087 | 24.59283 | 14245 ft | 311 kts | 131° |
| 2026-04-24 10:48 | 37.64684 | 24.61381 | 13992 ft | 310 kts | 131° |
| 2026-04-24 10:48 | 37.63302 | 24.63446 | 13743 ft | 309 kts | 131° |
| 2026-04-24 10:48 | 37.61944 | 24.65475 | 13497 ft | 307 kts | 131° |
| 2026-04-24 10:49 | 37.60603 | 24.67478 | 13254 ft | 306 kts | 131° |
| 2026-04-24 10:49 | 37.59226 | 24.69531 | 13011 ft | 305 kts | 131° |
| 2026-04-24 10:49 | 37.57870 | 24.71553 | 12777 ft | 304 kts | 131° |
| 2026-04-24 10:49 | 37.56508 | 24.73585 | 12526 ft | 303 kts | 131° |
| 2026-04-24 10:50 | 37.55155 | 24.75605 | 12188 ft | 302 kts | 131° |
| 2026-04-24 10:50 | 37.53815 | 24.77601 | 11811 ft | 302 kts | 131° |
| 2026-04-24 10:50 | 37.52444 | 24.79643 | 11402 ft | 303 kts | 131° |
| 2026-04-24 10:50 | 37.51091 | 24.81655 | 10991 ft | 304 kts | 131° |
| 2026-04-24 10:51 | 37.49733 | 24.83674 | 10717 ft | 299 kts | 131° |
| 2026-04-24 10:51 | 37.48421 | 24.85622 | 10570 ft | 292 kts | 131° |
| 2026-04-24 10:51 | 37.47092 | 24.87596 | 10417 ft | 294 kts | 131° |
| 2026-04-24 10:51 | 37.45776 | 24.89547 | 10270 ft | 294 kts | 131° |
| 2026-04-24 10:52 | 37.44470 | 24.91483 | 10133 ft | 294 kts | 131° |
| 2026-04-24 10:52 | 37.43151 | 24.93436 | 9970 ft | 294 kts | 131° |
| 2026-04-24 10:52 | 37.41820 | 24.95405 | 9580 ft | 296 kts | 131° |
| 2026-04-24 10:52 | 37.40485 | 24.97379 | 9202 ft | 296 kts | 131° |
| 2026-04-24 10:53 | 37.39160 | 24.99336 | 8830 ft | 296 kts | 131° |
| 2026-04-24 10:53 | 37.37851 | 25.01271 | 8461 ft | 296 kts | 131° |
| 2026-04-24 10:53 | 37.36586 | 25.03301 | 8086 ft | 295 kts | 124° |
| 2026-04-24 10:53 | 37.35538 | 25.05515 | 7726 ft | 292 kts | 117° |
| 2026-04-24 10:54 | 37.34630 | 25.07785 | 7356 ft | 291 kts | 116° |
| 2026-04-24 10:54 | 37.33745 | 25.10073 | 6990 ft | 290 kts | 115° |
| 2026-04-24 10:54 | 37.32867 | 25.12337 | 6631 ft | 291 kts | 115° |
| 2026-04-24 10:54 | 37.31983 | 25.14601 | 6276 ft | 291 kts | 115° |
| 2026-04-24 10:55 | 37.31074 | 25.16911 | 5906 ft | 292 kts | 115° |
| 2026-04-24 10:55 | 37.30175 | 25.19186 | 5535 ft | 291 kts | 115° |
| 2026-04-24 10:55 | 37.29288 | 25.21424 | 5181 ft | 289 kts | 115° |
| 2026-04-24 10:55 | 37.28398 | 25.23671 | 4830 ft | 288 kts | 115° |
| 2026-04-24 10:56 | 37.27515 | 25.25899 | 4497 ft | 287 kts | 115° |
| 2026-04-24 10:56 | 37.26635 | 25.28118 | 4163 ft | 283 kts | 115° |
| 2026-04-24 10:56 | 37.25779 | 25.30279 | 4045 ft | 267 kts | 113° |
| 2026-04-24 10:56 | 37.25344 | 25.32448 | 3893 ft | 252 kts | 83° |
| 2026-04-24 10:57 | 37.25744 | 25.34533 | 3696 ft | 243 kts | 66° |
| 2026-04-24 10:57 | 37.26329 | 25.36462 | 3681 ft | 230 kts | 65° |
| 2026-04-24 10:57 | 37.26893 | 25.38294 | 3644 ft | 222 kts | 65° |
| 2026-04-24 10:57 | 37.27425 | 25.40059 | 3515 ft | 216 kts | 62° |
| 2026-04-24 10:58 | 37.28317 | 25.41499 | 3279 ft | 204 kts | 23° |
| 2026-04-24 10:58 | 37.29631 | 25.41719 | 3125 ft | 190 kts | 340° |
| 2026-04-24 10:58 | 37.30802 | 25.41028 | 3071 ft | 180 kts | 331° |
| 2026-04-24 10:58 | 37.31893 | 25.40306 | 2750 ft | 182 kts | 333° |
| 2026-04-24 10:59 | 37.33044 | 25.39637 | 2432 ft | 181 kts | 336° |
| 2026-04-24 10:59 | 37.34173 | 25.39052 | 2158 ft | 172 kts | 338° |
| 2026-04-24 10:59 | 37.35244 | 25.38535 | 1922 ft | 160 kts | 339° |
| 2026-04-24 10:59 | 37.36253 | 25.38065 | 1703 ft | 150 kts | 340° |
| 2026-04-24 11:00 | 37.37165 | 25.37651 | 1542 ft | 134 kts | 340° |
| 2026-04-24 11:00 | 37.38012 | 25.37269 | 1348 ft | 126 kts | 340° |
| 2026-04-24 11:00 | 37.38829 | 25.36904 | 1196 ft | 125 kts | 341° |
| 2026-04-24 11:00 | 37.39645 | 25.36541 | 1036 ft | 125 kts | 341° |
| 2026-04-24 11:01 | 37.40455 | 25.36181 | 875 ft | 124 kts | 341° |
| 2026-04-24 11:01 | 37.41257 | 25.35820 | 733 ft | 124 kts | 341° |
| 2026-04-24 11:01 | 37.42061 | 25.35465 | 565 ft | 124 kts | 341° |
| 2026-04-24 11:01 | 37.42847 | 25.35109 | 405 ft | 119 kts | 341° |
| 2026-04-24 11:02 | 37.43474 | 25.34832 | 418 ft | 75 kts | 340° |
| 2026-04-24 11:02 | 37.43835 | 25.34671 | 405 ft | 44 kts | 340° |
| 2026-04-24 11:02 | 37.44085 | 25.34559 | 389 ft | 32 kts | 341° |
| 2026-04-24 11:02 | 37.44238 | 25.34498 | 379 ft | 16 kts | 4° |
| 2026-04-24 11:03 | 37.44313 | 25.34477 | 376 ft | 9 kts | 276° |
| 2026-04-24 11:03 | 37.44255 | 25.34462 | 377 ft | 10 kts | 151° |
| 2026-04-24 11:03 | 37.44170 | 25.34520 | 383 ft | 17 kts | 160° |
| 2026-04-24 11:03 | 37.44041 | 25.34577 | 393 ft | 20 kts | 160° |
| 2026-04-24 11:04 | 37.43924 | 25.34630 | 400 ft | 16 kts | 160° |
| 2026-04-24 11:04 | 37.43832 | 25.34671 | 405 ft | 12 kts | 160° |
| 2026-04-24 11:04 | 37.43749 | 25.34707 | 409 ft | 12 kts | 163° |
| 2026-04-24 11:04 | 37.43668 | 25.34699 | 410 ft | 12 kts | 208° |
| 2026-04-24 11:05 | 37.43586 | 25.34665 | 410 ft | 12 kts | 170° |
| 2026-04-24 11:05 | 37.43509 | 25.34695 | 413 ft | 8 kts | 162° |
| 2026-04-24 11:05 | 37.43469 | 25.34661 | 413 ft | 6 kts | 249° |
| 2026-04-24 11:05 | 37.43464 | 25.34643 | 413 ft | 0 kts | 250° |